Aviation Digital Data Service (ADDS)

Output produced by METARs form (2349 UTC 24 February 2018)
found at http://aviationweather.gov/adds/metars/
 
METAR text: RODN 242256Z AUTO 16007KT 10SM CLR 20/17 A3001 RMK AO2 SLP169 T02020168
Conditions at: RODN (KADENA (USAFB-NA, JP) observed 2256 UTC 24 February 2018
Temperature: 20.2°C (68°F)
Dewpoint: 16.8°C (62°F) [RH = 81%]
Pressure (altimeter): 30.01 inches Hg (1016.3 mb)
[Sea-level pressure: 1016.9 mb]
Winds: from the SSE (160 degrees) at 8 MPH (7 knots; 3.6 m/s)
Visibility: 10 or more miles (16+ km)
Ceiling: at least 12,000 feet AGL
Clouds: sky clear below 12,000 feet AGL
Weather: automated observation with no human augmentation;
there may or may not be significant weather present at this time

METAR text: ROAH 242330Z 19017KT 9999 FEW017 22/17 Q1016 RMK 2CU017 A3000
Conditions at: ROAH (NAHA (CIV/JASDF), JP) observed 2330 UTC 24 February 2018
Temperature: 22.0°C (72°F)
Dewpoint: 17.0°C (63°F) [RH = 73%]
Pressure (altimeter): 30.00 inches Hg (1016.0 mb)
Winds: from the S (190 degrees) at 20 MPH (17 knots; 8.8 m/s)
Visibility: 6 or more miles (10+ km)
Ceiling: at least 12,000 feet AGL
Clouds: few clouds at 1700 feet AGL
Weather: no significant weather observed at this time